createdAt,value
2022-12-04T00:00:12.000Z,0.55
2022-12-04T00:01:12.000Z,0.50
2022-12-04T00:02:12.000Z,0.50
2022-12-04T00:03:12.000Z,0.52
2022-12-04T00:04:12.000Z,0.55
2022-12-04T00:05:12.000Z,0.55
2022-12-04T00:06:12.000Z,0.55
2022-12-04T00:07:12.000Z,0.56
2022-12-04T00:08:12.000Z,0.55
2022-12-04T00:09:12.000Z,0.55
2022-12-04T00:10:12.000Z,0.52
2022-12-04T00:10:12.000Z,0.52
2022-12-04T00:11:12.000Z,0.49
2022-12-04T00:11:12.000Z,0.49
2022-12-04T00:12:12.000Z,0.55
2022-12-04T00:12:12.000Z,0.55
2022-12-04T00:13:12.000Z,0.56
2022-12-04T00:13:12.000Z,0.56
2022-12-04T00:14:12.000Z,0.55
2022-12-04T00:14:12.000Z,0.55
2022-12-04T00:15:12.000Z,0.55
2022-12-04T00:16:12.000Z,0.56
2022-12-04T00:17:12.000Z,0.56
2022-12-04T00:18:12.000Z,0.55
2022-12-04T00:19:12.000Z,0.59
2022-12-04T00:20:12.000Z,0.52
2022-12-04T00:21:12.000Z,0.55
2022-12-04T00:22:12.000Z,0.58
2022-12-04T00:23:12.000Z,0.52
2022-12-04T00:24:12.000Z,0.55
2022-12-04T00:25:12.000Z,0.58
2022-12-04T00:26:12.000Z,0.58
2022-12-04T00:27:12.000Z,0.52
2022-12-04T00:28:12.000Z,0.58
2022-12-04T00:29:12.000Z,0.52
2022-12-04T00:30:12.000Z,0.55
2022-12-04T00:31:12.000Z,0.55
2022-12-04T00:32:12.000Z,0.59
2022-12-04T00:33:12.000Z,0.59
2022-12-04T00:34:12.000Z,0.59
2022-12-04T00:35:12.000Z,0.59
2022-12-04T00:36:12.000Z,0.59
2022-12-04T00:37:12.000Z,0.60
2022-12-04T00:38:12.000Z,0.59
2022-12-04T00:39:12.000Z,0.58
2022-12-04T00:40:12.000Z,0.63
2022-12-04T00:41:12.000Z,0.60
2022-12-04T00:42:12.000Z,0.59
2022-12-04T00:43:12.000Z,0.58
2022-12-04T00:44:12.000Z,0.59
2022-12-04T00:45:12.000Z,0.65
2022-12-04T00:46:12.000Z,0.59
2022-12-04T00:47:12.000Z,0.63
2022-12-04T00:48:12.000Z,0.65
2022-12-04T00:49:12.000Z,0.58
2022-12-04T00:50:12.000Z,0.59
2022-12-04T00:51:12.000Z,0.58
2022-12-04T00:52:11.000Z,0.60
2022-12-04T00:53:11.000Z,0.58
2022-12-04T00:54:11.000Z,0.59
2022-12-04T00:55:11.000Z,0.59
2022-12-04T00:56:11.000Z,0.62
2022-12-04T00:57:11.000Z,0.60
2022-12-04T00:58:11.000Z,0.59
2022-12-04T00:59:11.000Z,0.65
2022-12-04T01:00:11.000Z,0.60
2022-12-04T01:01:11.000Z,0.59
2022-12-04T01:02:11.000Z,0.60
2022-12-04T01:03:11.000Z,0.66
2022-12-04T01:04:11.000Z,0.69
2022-12-04T01:05:11.000Z,0.60
2022-12-04T01:06:11.000Z,0.62
2022-12-04T01:07:11.000Z,0.62
2022-12-04T01:08:11.000Z,0.63
2022-12-04T01:09:11.000Z,0.63
2022-12-04T01:10:11.000Z,0.73
2022-12-04T01:11:11.000Z,0.63
2022-12-04T01:12:11.000Z,0.65
2022-12-04T01:13:11.000Z,0.65
2022-12-04T01:14:11.000Z,0.66
2022-12-04T01:15:11.000Z,0.66
2022-12-04T01:16:11.000Z,0.65
2022-12-04T01:17:11.000Z,0.65
2022-12-04T01:18:11.000Z,0.69
2022-12-04T01:19:11.000Z,0.65
2022-12-04T01:20:11.000Z,0.69
2022-12-04T01:21:11.000Z,0.68
2022-12-04T01:22:11.000Z,0.66
2022-12-04T01:23:11.000Z,0.62
2022-12-04T01:24:11.000Z,0.65
2022-12-04T01:25:11.000Z,0.69
2022-12-04T01:26:11.000Z,0.69
2022-12-04T01:27:11.000Z,0.66
2022-12-04T01:28:11.000Z,0.68
2022-12-04T01:29:11.000Z,0.62
2022-12-04T01:30:11.000Z,0.68
2022-12-04T01:31:11.000Z,0.66
2022-12-04T01:32:11.000Z,0.68
2022-12-04T01:33:11.000Z,0.65
2022-12-04T01:34:11.000Z,0.65
2022-12-04T01:35:11.000Z,0.66
2022-12-04T01:36:11.000Z,0.68
2022-12-04T01:37:11.000Z,0.68
2022-12-04T01:38:11.000Z,0.62
2022-12-04T01:39:11.000Z,0.65
2022-12-04T01:40:11.000Z,0.63
2022-12-04T01:41:11.000Z,0.62
2022-12-04T01:42:11.000Z,0.68
2022-12-04T01:43:11.000Z,0.63
2022-12-04T01:44:11.000Z,0.68
2022-12-04T01:45:11.000Z,0.65
2022-12-04T01:46:11.000Z,0.65
2022-12-04T01:47:11.000Z,0.70
2022-12-04T01:48:11.000Z,0.70
2022-12-04T01:49:11.000Z,0.68
2022-12-04T01:50:11.000Z,0.62
2022-12-04T01:51:11.000Z,0.63
2022-12-04T01:52:11.000Z,0.68
2022-12-04T01:53:11.000Z,0.65
2022-12-04T01:54:11.000Z,0.69
2022-12-04T01:55:11.000Z,0.63
2022-12-04T01:56:11.000Z,0.65
2022-12-04T01:57:11.000Z,0.65
2022-12-04T01:58:11.000Z,0.68
2022-12-04T01:59:11.000Z,0.63
2022-12-04T02:00:11.000Z,0.68
2022-12-04T02:01:11.000Z,0.68
2022-12-04T02:02:11.000Z,0.63
2022-12-04T02:03:11.000Z,0.68
2022-12-04T02:04:11.000Z,0.69
2022-12-04T02:05:11.000Z,0.69
2022-12-04T02:06:11.000Z,0.68
2022-12-04T02:07:11.000Z,0.65
2022-12-04T02:08:11.000Z,0.62
2022-12-04T02:09:11.000Z,0.62
2022-12-04T02:10:11.000Z,0.66
2022-12-04T02:11:11.000Z,0.65
2022-12-04T02:12:11.000Z,0.68
2022-12-04T02:13:11.000Z,0.69
2022-12-04T02:14:11.000Z,0.63
2022-12-04T02:15:11.000Z,0.68
2022-12-04T02:16:11.000Z,0.68
2022-12-04T02:17:11.000Z,0.66
2022-12-04T02:18:11.000Z,0.68
2022-12-04T02:19:11.000Z,0.70
2022-12-04T02:20:11.000Z,0.73
2022-12-04T02:21:11.000Z,0.70
2022-12-04T02:22:11.000Z,0.68
2022-12-04T02:23:11.000Z,0.68
2022-12-04T02:24:11.000Z,0.69
2022-12-04T02:25:11.000Z,0.69
2022-12-04T02:26:11.000Z,0.70
2022-12-04T02:27:11.000Z,0.70
2022-12-04T02:28:11.000Z,0.70
2022-12-04T02:29:11.000Z,0.66
2022-12-04T02:30:11.000Z,0.65
2022-12-04T02:31:10.000Z,0.70
2022-12-04T02:32:10.000Z,0.70
2022-12-04T02:33:10.000Z,0.69
2022-12-04T02:34:10.000Z,0.66
2022-12-04T02:35:10.000Z,0.70
2022-12-04T02:36:10.000Z,0.73
2022-12-04T02:37:10.000Z,0.70
2022-12-04T02:38:10.000Z,0.66
2022-12-04T02:39:10.000Z,0.68
2022-12-04T02:40:10.000Z,0.65
2022-12-04T02:41:10.000Z,0.68
2022-12-04T02:42:10.000Z,0.70
2022-12-04T02:43:10.000Z,0.68
2022-12-04T02:44:10.000Z,0.66
2022-12-04T02:45:10.000Z,0.66
2022-12-04T02:46:10.000Z,0.73
2022-12-04T02:47:10.000Z,0.68
2022-12-04T02:48:10.000Z,0.66
2022-12-04T02:49:10.000Z,0.70
2022-12-04T02:50:10.000Z,0.68
2022-12-04T02:51:10.000Z,0.68
2022-12-04T02:52:10.000Z,0.73
2022-12-04T02:53:10.000Z,0.76
2022-12-04T02:54:10.000Z,0.69
2022-12-04T02:55:10.000Z,0.68
2022-12-04T02:56:10.000Z,0.73
2022-12-04T02:57:10.000Z,0.74
2022-12-04T02:58:10.000Z,0.70
2022-12-04T02:59:10.000Z,0.69
2022-12-04T03:00:10.000Z,0.73
2022-12-04T03:01:10.000Z,0.70
2022-12-04T03:02:10.000Z,0.69
2022-12-04T03:03:10.000Z,0.68
2022-12-04T03:04:10.000Z,0.74
2022-12-04T03:05:10.000Z,0.73
2022-12-04T03:06:10.000Z,0.70
2022-12-04T03:07:10.000Z,0.74
2022-12-04T03:08:10.000Z,0.69
2022-12-04T03:09:10.000Z,0.76
2022-12-04T03:10:10.000Z,0.68
2022-12-04T03:11:10.000Z,0.74
2022-12-04T03:12:10.000Z,0.76
2022-12-04T03:13:10.000Z,0.70
2022-12-04T03:14:10.000Z,0.66
2022-12-04T03:15:10.000Z,0.73
2022-12-04T03:16:10.000Z,0.73
2022-12-04T03:17:10.000Z,0.70
2022-12-04T03:18:10.000Z,0.73
2022-12-04T03:19:10.000Z,0.76
2022-12-04T03:20:10.000Z,0.74
2022-12-04T03:21:10.000Z,0.74
2022-12-04T03:22:10.000Z,0.74
2022-12-04T03:23:10.000Z,0.73
2022-12-04T03:24:10.000Z,0.70
2022-12-04T03:25:10.000Z,0.69
2022-12-04T03:26:10.000Z,0.69
2022-12-04T03:27:10.000Z,0.69
2022-12-04T03:28:10.000Z,0.76
2022-12-04T03:29:10.000Z,0.74
2022-12-04T03:30:10.000Z,0.68
2022-12-04T03:31:10.000Z,0.73
2022-12-04T03:32:10.000Z,0.74
2022-12-04T03:33:10.000Z,0.74
2022-12-04T03:34:10.000Z,0.73
2022-12-04T03:35:10.000Z,0.69
2022-12-04T03:36:10.000Z,0.74
2022-12-04T03:37:10.000Z,0.70
2022-12-04T03:38:10.000Z,0.74
2022-12-04T03:39:10.000Z,0.68
2022-12-04T03:40:10.000Z,0.74
2022-12-04T03:41:10.000Z,0.74
2022-12-04T03:42:10.000Z,0.74
2022-12-04T03:43:10.000Z,0.70
2022-12-04T03:44:10.000Z,0.69
2022-12-04T03:45:10.000Z,0.70
2022-12-04T03:46:10.000Z,0.77
2022-12-04T03:47:10.000Z,0.70
2022-12-04T03:48:10.000Z,0.70
2022-12-04T03:49:10.000Z,0.73
2022-12-04T03:50:10.000Z,0.73
2022-12-04T03:51:10.000Z,0.68
2022-12-04T03:52:10.000Z,0.74
2022-12-04T03:53:10.000Z,0.69
2022-12-04T03:54:10.000Z,0.74
2022-12-04T03:55:10.000Z,0.70
2022-12-04T03:56:10.000Z,0.73
2022-12-04T03:57:10.000Z,0.70
2022-12-04T03:58:10.000Z,0.70
2022-12-04T03:59:10.000Z,0.76
2022-12-04T04:00:10.000Z,0.70
2022-12-04T04:01:10.000Z,0.70
2022-12-04T04:02:10.000Z,0.66
2022-12-04T04:03:10.000Z,0.69
2022-12-04T04:04:10.000Z,0.70
2022-12-04T04:05:10.000Z,0.70
2022-12-04T04:06:10.000Z,0.70
2022-12-04T04:07:10.000Z,0.73
2022-12-04T04:08:10.000Z,0.76
2022-12-04T04:09:10.000Z,0.68
2022-12-04T04:10:10.000Z,0.73
2022-12-04T04:11:09.000Z,0.68
2022-12-04T04:12:09.000Z,0.76
2022-12-04T04:13:09.000Z,0.73
2022-12-04T04:14:09.000Z,0.70
2022-12-04T04:15:09.000Z,0.77
2022-12-04T04:16:09.000Z,0.76
2022-12-04T04:17:09.000Z,0.69
2022-12-04T04:18:09.000Z,0.74
2022-12-04T04:19:09.000Z,0.70
2022-12-04T04:20:09.000Z,0.69
2022-12-04T04:21:09.000Z,0.70
2022-12-04T04:22:09.000Z,0.73
2022-12-04T04:23:09.000Z,0.69
2022-12-04T04:24:09.000Z,0.73
2022-12-04T04:25:09.000Z,0.69
2022-12-04T04:26:09.000Z,0.70
2022-12-04T04:27:09.000Z,0.74
2022-12-04T04:28:09.000Z,0.68
2022-12-04T04:29:09.000Z,0.70
2022-12-04T04:30:09.000Z,0.69
2022-12-04T04:31:09.000Z,0.66
2022-12-04T04:32:09.000Z,0.76
2022-12-04T04:33:09.000Z,0.69
2022-12-04T04:34:09.000Z,0.70
2022-12-04T04:35:09.000Z,0.73
2022-12-04T04:36:09.000Z,0.73
2022-12-04T04:37:09.000Z,0.70
2022-12-04T04:38:09.000Z,0.70
2022-12-04T04:39:09.000Z,0.70
2022-12-04T04:40:09.000Z,0.73
2022-12-04T04:41:09.000Z,0.70
2022-12-04T04:42:09.000Z,0.74
2022-12-04T04:43:09.000Z,0.74
2022-12-04T04:44:09.000Z,0.73
2022-12-04T04:45:09.000Z,0.74
2022-12-04T04:46:09.000Z,0.73
2022-12-04T04:47:09.000Z,0.76
2022-12-04T04:48:09.000Z,0.73
2022-12-04T04:49:09.000Z,0.68
2022-12-04T04:50:09.000Z,0.76
2022-12-04T04:51:09.000Z,0.69
2022-12-04T04:52:09.000Z,0.70
2022-12-04T04:53:09.000Z,0.69
2022-12-04T04:54:09.000Z,0.74
2022-12-04T04:55:09.000Z,0.69
2022-12-04T04:56:09.000Z,0.69
2022-12-04T04:57:09.000Z,0.70
2022-12-04T04:58:09.000Z,0.76
2022-12-04T04:59:09.000Z,0.73
2022-12-04T05:00:09.000Z,0.73
2022-12-04T05:01:09.000Z,0.70
2022-12-04T05:02:09.000Z,0.73
2022-12-04T05:03:09.000Z,0.69
2022-12-04T05:04:09.000Z,0.69
2022-12-04T05:05:09.000Z,0.69
2022-12-04T05:06:09.000Z,0.73
2022-12-04T05:07:09.000Z,0.69
2022-12-04T05:08:09.000Z,0.69
2022-12-04T05:09:09.000Z,0.73
2022-12-04T05:10:09.000Z,0.69
2022-12-04T05:11:09.000Z,0.68
2022-12-04T05:12:09.000Z,0.74
2022-12-04T05:13:09.000Z,0.70
2022-12-04T05:14:09.000Z,0.76
2022-12-04T05:15:09.000Z,0.68
2022-12-04T05:16:09.000Z,0.68
2022-12-04T05:17:09.000Z,0.66
2022-12-04T05:18:09.000Z,0.69
2022-12-04T05:19:09.000Z,0.70
2022-12-04T05:20:09.000Z,0.66
2022-12-04T05:21:09.000Z,0.68
2022-12-04T05:22:09.000Z,0.68
2022-12-04T05:23:09.000Z,0.69
2022-12-04T05:24:09.000Z,0.69
2022-12-04T05:25:09.000Z,0.70
2022-12-04T05:26:09.000Z,0.73
2022-12-04T05:27:09.000Z,0.69
2022-12-04T05:28:09.000Z,0.74
2022-12-04T05:29:09.000Z,0.68
2022-12-04T05:30:09.000Z,0.65
2022-12-04T05:31:09.000Z,0.69
2022-12-04T05:32:09.000Z,0.73
2022-12-04T05:33:09.000Z,0.70
2022-12-04T05:34:09.000Z,0.66
2022-12-04T05:35:09.000Z,0.66
2022-12-04T05:36:09.000Z,0.74
2022-12-04T05:37:09.000Z,0.68
2022-12-04T05:38:09.000Z,0.70
2022-12-04T05:39:09.000Z,0.69
2022-12-04T05:40:09.000Z,0.73
2022-12-04T05:41:09.000Z,0.68
2022-12-04T05:42:09.000Z,0.68
2022-12-04T05:43:09.000Z,0.68
2022-12-04T05:44:09.000Z,0.69
2022-12-04T05:45:09.000Z,0.73
2022-12-04T05:46:09.000Z,0.76
2022-12-04T05:47:09.000Z,0.68
2022-12-04T05:48:09.000Z,0.68
2022-12-04T05:49:09.000Z,0.70
2022-12-04T05:50:08.000Z,0.68
2022-12-04T05:51:08.000Z,0.68
2022-12-04T05:52:08.000Z,0.68
2022-12-04T05:53:08.000Z,0.68
2022-12-04T05:54:08.000Z,0.68
2022-12-04T05:55:08.000Z,0.68
2022-12-04T05:56:08.000Z,0.65
2022-12-04T05:57:08.000Z,0.68
2022-12-04T05:58:08.000Z,0.65
2022-12-04T05:59:08.000Z,0.70
2022-12-04T06:00:08.000Z,0.69
2022-12-04T06:01:08.000Z,0.68
2022-12-04T06:02:08.000Z,0.70
2022-12-04T06:03:08.000Z,0.69
2022-12-04T06:04:08.000Z,0.70
2022-12-04T06:05:08.000Z,0.66
2022-12-04T06:06:08.000Z,0.69
2022-12-04T06:07:08.000Z,0.68
2022-12-04T06:08:08.000Z,0.70
2022-12-04T06:09:08.000Z,0.69
2022-12-04T06:10:08.000Z,0.70
2022-12-04T06:11:08.000Z,0.68
2022-12-04T06:12:08.000Z,0.69
2022-12-04T06:13:08.000Z,0.70
2022-12-04T06:14:08.000Z,0.68
2022-12-04T06:15:08.000Z,0.68
2022-12-04T06:16:08.000Z,0.69
2022-12-04T06:17:08.000Z,0.65
2022-12-04T06:18:08.000Z,0.68
2022-12-04T06:19:08.000Z,0.66
2022-12-04T06:20:08.000Z,0.68
2022-12-04T06:21:08.000Z,0.70
2022-12-04T06:22:08.000Z,0.73
2022-12-04T06:23:08.000Z,0.66
2022-12-04T06:24:08.000Z,0.66
2022-12-04T06:25:08.000Z,0.69
2022-12-04T06:26:08.000Z,0.66
2022-12-04T06:27:08.000Z,0.74
2022-12-04T06:28:08.000Z,0.68
2022-12-04T06:29:08.000Z,0.69
2022-12-04T06:30:08.000Z,0.69
2022-12-04T06:31:08.000Z,0.74
2022-12-04T06:32:08.000Z,0.68
2022-12-04T06:33:08.000Z,0.69
2022-12-04T06:34:08.000Z,0.69
2022-12-04T06:35:08.000Z,0.70
2022-12-04T06:36:08.000Z,0.69
2022-12-04T06:37:08.000Z,0.70
2022-12-04T06:38:08.000Z,0.70
2022-12-04T06:39:08.000Z,0.68
2022-12-04T06:40:08.000Z,0.70
2022-12-04T06:41:08.000Z,0.73
2022-12-04T06:42:08.000Z,0.73
2022-12-04T06:43:08.000Z,0.69
2022-12-04T06:44:08.000Z,0.70
2022-12-04T06:45:08.000Z,0.69
2022-12-04T06:46:08.000Z,0.70
2022-12-04T06:47:08.000Z,0.73
2022-12-04T06:48:08.000Z,0.73
2022-12-04T06:49:08.000Z,0.74
2022-12-04T06:50:08.000Z,0.74
2022-12-04T06:51:08.000Z,0.81
2022-12-04T06:52:08.000Z,0.77
2022-12-04T06:53:08.000Z,0.76
2022-12-04T06:54:08.000Z,0.78
2022-12-04T06:55:08.000Z,0.70
2022-12-04T06:56:08.000Z,0.73
2022-12-04T06:57:08.000Z,0.73
2022-12-04T06:58:08.000Z,0.80
2022-12-04T06:59:08.000Z,0.77
2022-12-04T07:00:08.000Z,0.77
2022-12-04T07:01:08.000Z,0.78
2022-12-04T07:02:08.000Z,0.76
2022-12-04T07:03:08.000Z,0.80
2022-12-04T07:04:08.000Z,0.77
2022-12-04T07:05:08.000Z,0.76
2022-12-04T07:06:08.000Z,0.74
2022-12-04T07:07:08.000Z,0.78
2022-12-04T07:08:08.000Z,0.76
2022-12-04T07:09:08.000Z,0.80
2022-12-04T07:10:08.000Z,0.77
2022-12-04T07:11:08.000Z,0.81
2022-12-04T07:12:08.000Z,0.78
2022-12-04T07:13:08.000Z,0.80
2022-12-04T07:14:08.000Z,0.78
2022-12-04T07:15:08.000Z,0.81
2022-12-04T07:16:08.000Z,0.81
2022-12-04T07:17:08.000Z,0.78
2022-12-04T07:18:08.000Z,0.80
2022-12-04T07:19:08.000Z,0.83
2022-12-04T07:20:08.000Z,0.80
2022-12-04T07:21:08.000Z,0.77
2022-12-04T07:22:08.000Z,0.78
2022-12-04T07:23:08.000Z,0.80
2022-12-04T07:24:08.000Z,0.81
2022-12-04T07:25:08.000Z,0.78
2022-12-04T07:26:08.000Z,0.83
2022-12-04T07:27:08.000Z,0.78
2022-12-04T07:28:08.000Z,0.81
2022-12-04T07:29:08.000Z,0.83
2022-12-04T07:30:07.000Z,0.81
2022-12-04T07:31:07.000Z,0.81
2022-12-04T07:32:07.000Z,0.80
2022-12-04T07:33:07.000Z,0.76
2022-12-04T07:34:07.000Z,0.83
2022-12-04T07:35:07.000Z,0.84
2022-12-04T07:36:07.000Z,0.81
2022-12-04T07:37:07.000Z,0.81
2022-12-04T07:38:07.000Z,0.77
2022-12-04T07:39:07.000Z,0.84
2022-12-04T07:40:07.000Z,0.81
2022-12-04T07:41:07.000Z,0.81
2022-12-04T07:42:07.000Z,0.86
2022-12-04T07:43:07.000Z,0.83
2022-12-04T07:44:07.000Z,0.84
2022-12-04T07:45:07.000Z,0.81
2022-12-04T07:46:07.000Z,0.80
2022-12-04T07:47:07.000Z,0.86
2022-12-04T07:48:07.000Z,0.80
2022-12-04T07:49:07.000Z,0.83
2022-12-04T07:50:07.000Z,0.77
2022-12-04T07:50:07.000Z,0.77
2022-12-04T07:51:07.000Z,0.83
2022-12-04T07:51:07.000Z,0.83
2022-12-04T07:52:07.000Z,0.80
2022-12-04T07:52:07.000Z,0.80
2022-12-04T07:53:07.000Z,0.84
2022-12-04T07:53:07.000Z,0.84
2022-12-04T07:54:07.000Z,0.80
2022-12-04T07:54:07.000Z,0.80
2022-12-04T07:55:07.000Z,0.81
2022-12-04T07:56:07.000Z,0.83
2022-12-04T07:57:07.000Z,0.83
2022-12-04T07:58:07.000Z,0.80
2022-12-04T07:59:07.000Z,0.81
2022-12-04T08:00:07.000Z,0.81
2022-12-04T08:01:07.000Z,0.86
2022-12-04T08:02:07.000Z,0.81
2022-12-04T08:03:07.000Z,0.83
2022-12-04T08:04:07.000Z,0.88
2022-12-04T08:05:07.000Z,0.81
2022-12-04T08:06:07.000Z,0.77
2022-12-04T08:07:07.000Z,0.84
2022-12-04T08:08:07.000Z,0.84
2022-12-04T08:09:07.000Z,0.84
2022-12-04T08:16:24.000Z,0.84
2022-12-04T08:16:24.000Z,0.92
2022-12-04T08:17:24.000Z,0.88
2022-12-04T08:18:24.000Z,0.94
2022-12-04T08:19:24.000Z,0.91
2022-12-04T08:20:24.000Z,0.86
2022-12-04T08:21:24.000Z,0.91
2022-12-04T08:22:24.000Z,0.94
2022-12-04T08:23:24.000Z,0.94
2022-12-04T08:24:24.000Z,0.88
2022-12-04T08:25:24.000Z,0.88
2022-12-04T08:26:24.000Z,0.92
2022-12-04T08:27:24.000Z,0.92
2022-12-04T08:28:24.000Z,0.94
2022-12-04T08:29:24.000Z,0.92
2022-12-04T08:30:24.000Z,0.94
2022-12-04T08:31:24.000Z,0.91
2022-12-04T08:32:24.000Z,0.91
2022-12-04T08:33:24.000Z,0.95
2022-12-04T08:34:24.000Z,0.94
2022-12-04T08:35:24.000Z,0.94
2022-12-04T08:36:24.000Z,0.96
2022-12-04T08:37:24.000Z,0.95
2022-12-04T08:38:24.000Z,0.94
2022-12-04T08:39:24.000Z,0.94
2022-12-04T08:40:24.000Z,0.95
2022-12-04T08:41:24.000Z,0.96
2022-12-04T08:42:24.000Z,0.96
2022-12-04T08:43:24.000Z,0.96
2022-12-04T08:44:24.000Z,0.99
2022-12-04T08:45:24.000Z,1.02
2022-12-04T08:46:24.000Z,0.99
2022-12-04T08:47:24.000Z,1.02
2022-12-04T08:48:24.000Z,1.01
2022-12-04T08:49:24.000Z,1.02
2022-12-04T08:50:24.000Z,0.99
2022-12-04T08:51:24.000Z,1.05
2022-12-04T08:52:24.000Z,0.98
2022-12-04T08:53:24.000Z,1.05
2022-12-04T08:54:24.000Z,1.06
2022-12-04T08:55:24.000Z,1.01
2022-12-04T08:56:24.000Z,1.02
2022-12-04T08:57:24.000Z,1.05
2022-12-04T08:58:24.000Z,1.01
2022-12-04T08:59:24.000Z,1.02
2022-12-04T09:00:24.000Z,1.02
2022-12-04T09:01:24.000Z,1.01
2022-12-04T09:02:24.000Z,1.04
2022-12-04T09:03:24.000Z,1.08
2022-12-04T09:04:24.000Z,1.04
2022-12-04T09:05:24.000Z,1.06
2022-12-04T09:06:24.000Z,1.04
2022-12-04T09:07:24.000Z,1.04
2022-12-04T09:08:24.000Z,0.99
2022-12-04T09:09:24.000Z,1.02
2022-12-04T09:10:24.000Z,0.99
2022-12-04T09:11:24.000Z,1.05
2022-12-04T09:12:24.000Z,1.02
2022-12-04T09:13:24.000Z,1.02
2022-12-04T09:14:24.000Z,1.06
2022-12-04T09:15:24.000Z,1.06
2022-12-04T09:16:24.000Z,1.08
2022-12-04T09:17:24.000Z,1.12
2022-12-04T09:18:24.000Z,1.08
2022-12-04T09:19:24.000Z,1.08
2022-12-04T09:20:24.000Z,1.06
2022-12-04T09:21:24.000Z,1.08
2022-12-04T09:22:23.000Z,1.12
2022-12-04T09:23:23.000Z,1.06
2022-12-04T09:24:23.000Z,1.10
2022-12-04T09:25:23.000Z,1.14
2022-12-04T09:26:23.000Z,1.08
2022-12-04T09:27:23.000Z,1.13
2022-12-04T09:28:23.000Z,1.12
2022-12-04T09:29:23.000Z,1.14
2022-12-04T09:30:23.000Z,1.10
2022-12-04T09:31:23.000Z,1.16
2022-12-04T09:32:23.000Z,1.14
2022-12-04T09:33:23.000Z,1.13
2022-12-04T09:34:23.000Z,1.17
2022-12-04T09:35:23.000Z,1.16
2022-12-04T09:35:23.000Z,1.16
2022-12-04T09:36:23.000Z,1.13
2022-12-04T09:36:23.000Z,1.13
2022-12-04T09:37:23.000Z,1.16
2022-12-04T09:37:23.000Z,1.16
2022-12-04T09:38:23.000Z,1.12
2022-12-04T09:38:23.000Z,1.12
2022-12-04T09:39:23.000Z,1.16
2022-12-04T09:39:23.000Z,1.16
2022-12-04T09:40:23.000Z,1.16
2022-12-04T09:41:23.000Z,1.14
2022-12-04T09:42:23.000Z,1.16
2022-12-04T09:43:23.000Z,1.17
2022-12-04T09:44:23.000Z,1.16
2022-12-04T09:45:23.000Z,1.14
2022-12-04T09:46:23.000Z,1.16
2022-12-04T09:47:23.000Z,1.17
2022-12-04T09:48:23.000Z,1.19
2022-12-04T09:49:23.000Z,1.14
2022-12-04T09:50:23.000Z,1.14
2022-12-04T09:51:23.000Z,1.14
2022-12-04T09:52:23.000Z,1.20
2022-12-04T09:53:23.000Z,1.16
2022-12-04T09:54:23.000Z,1.17
2022-12-04T09:55:23.000Z,1.16
2022-12-04T09:56:23.000Z,1.17
2022-12-04T09:57:23.000Z,1.23
2022-12-04T09:58:23.000Z,1.16
2022-12-04T09:59:23.000Z,1.16
2022-12-04T10:00:23.000Z,1.17
2022-12-04T10:01:23.000Z,1.19
2022-12-04T10:02:23.000Z,1.16
2022-12-04T10:03:23.000Z,1.17
2022-12-04T10:04:23.000Z,1.20
2022-12-04T10:05:23.000Z,1.16
2022-12-04T10:06:23.000Z,1.19
2022-12-04T10:07:23.000Z,1.17
2022-12-04T10:08:23.000Z,1.17
2022-12-04T10:09:23.000Z,1.17
2022-12-04T10:10:23.000Z,1.20
2022-12-04T10:11:23.000Z,1.16
2022-12-04T10:12:23.000Z,1.17
2022-12-04T10:13:23.000Z,1.16
2022-12-04T10:14:23.000Z,1.13
2022-12-04T10:15:23.000Z,1.16
2022-12-04T10:16:23.000Z,1.16
2022-12-04T10:17:23.000Z,1.14
2022-12-04T10:18:23.000Z,1.13
2022-12-04T10:19:23.000Z,1.12
2022-12-04T10:20:23.000Z,1.10
2022-12-04T10:21:23.000Z,1.12
2022-12-04T10:22:23.000Z,1.10
2022-12-04T10:23:23.000Z,1.06
2022-12-04T10:24:23.000Z,1.14
2022-12-04T10:25:23.000Z,1.14
2022-12-04T10:26:23.000Z,1.08
2022-12-04T10:27:23.000Z,1.06
2022-12-04T10:28:23.000Z,1.10
2022-12-04T10:29:23.000Z,1.10
2022-12-04T10:30:23.000Z,1.12
2022-12-04T10:31:23.000Z,1.12
2022-12-04T10:32:23.000Z,1.10
2022-12-04T10:33:23.000Z,1.10
2022-12-04T10:34:23.000Z,1.10
2022-12-04T10:35:23.000Z,1.08
2022-12-04T10:36:23.000Z,1.17
2022-12-04T10:37:23.000Z,1.13
2022-12-04T10:38:23.000Z,1.12
2022-12-04T10:39:23.000Z,1.14
2022-12-04T10:40:23.000Z,1.14
2022-12-04T10:41:23.000Z,1.13
2022-12-04T10:42:23.000Z,1.16
2022-12-04T10:43:23.000Z,1.14
2022-12-04T10:44:23.000Z,1.19
2022-12-04T10:45:23.000Z,1.20
2022-12-04T10:46:23.000Z,1.23
2022-12-04T10:47:23.000Z,1.23
2022-12-04T10:48:23.000Z,1.19
2022-12-04T10:49:23.000Z,1.22
2022-12-04T10:50:23.000Z,1.30
2022-12-04T10:51:23.000Z,1.26
2022-12-04T10:52:23.000Z,1.28
2022-12-04T10:53:23.000Z,1.32
2022-12-04T10:54:23.000Z,1.34
2022-12-04T10:55:23.000Z,1.35
2022-12-04T10:56:23.000Z,1.38
2022-12-04T10:57:23.000Z,1.35
2022-12-04T10:58:23.000Z,1.34
2022-12-04T10:59:23.000Z,1.35
2022-12-04T11:00:22.000Z,1.40
2022-12-04T11:01:22.000Z,1.35
2022-12-04T11:02:22.000Z,1.35
2022-12-04T11:03:22.000Z,1.37
2022-12-04T11:04:22.000Z,1.34
2022-12-04T11:05:22.000Z,1.35
2022-12-04T11:06:22.000Z,1.30
2022-12-04T11:07:22.000Z,1.34
2022-12-04T11:08:22.000Z,1.34
2022-12-04T11:09:22.000Z,1.31
2022-12-04T11:10:22.000Z,1.32
2022-12-04T11:11:22.000Z,1.34
2022-12-04T11:12:22.000Z,1.31
2022-12-04T11:13:22.000Z,1.34
2022-12-04T11:14:22.000Z,1.38
2022-12-04T11:15:22.000Z,1.40
2022-12-04T11:16:22.000Z,1.40
2022-12-04T11:17:22.000Z,1.37
2022-12-04T11:18:22.000Z,1.38
2022-12-04T11:19:22.000Z,1.41
2022-12-04T11:20:22.000Z,1.42
2022-12-04T11:21:22.000Z,1.41
2022-12-04T11:22:22.000Z,1.48
2022-12-04T11:23:22.000Z,1.44
2022-12-04T11:24:22.000Z,1.45
2022-12-04T11:25:22.000Z,1.41
2022-12-04T11:26:22.000Z,1.45
2022-12-04T11:27:22.000Z,1.44
2022-12-04T11:28:22.000Z,1.42
2022-12-04T11:29:22.000Z,1.48
2022-12-04T11:30:22.000Z,1.42
2022-12-04T11:31:22.000Z,1.45
2022-12-04T11:32:22.000Z,1.41
2022-12-04T11:33:22.000Z,1.42
2022-12-04T11:34:22.000Z,1.41
2022-12-04T11:35:22.000Z,1.40
2022-12-04T11:36:22.000Z,1.40
2022-12-04T11:37:22.000Z,1.41
2022-12-04T11:38:22.000Z,1.40
2022-12-04T11:39:22.000Z,1.38
2022-12-04T11:40:22.000Z,1.40
2022-12-04T11:41:22.000Z,1.37
2022-12-04T11:42:22.000Z,1.41
2022-12-04T11:43:22.000Z,1.37
2022-12-04T11:44:22.000Z,1.34
2022-12-04T11:45:22.000Z,1.37
2022-12-04T11:46:22.000Z,1.34
2022-12-04T11:47:22.000Z,1.35
2022-12-04T11:48:22.000Z,1.32
2022-12-04T11:49:22.000Z,1.31
2022-12-04T11:50:22.000Z,1.34
2022-12-04T11:51:22.000Z,1.31
2022-12-04T11:52:22.000Z,1.35
2022-12-04T11:53:22.000Z,1.32
2022-12-04T11:54:22.000Z,1.35
2022-12-04T11:55:22.000Z,1.35
2022-12-04T11:56:22.000Z,1.37
2022-12-04T11:57:22.000Z,1.37
2022-12-04T11:58:22.000Z,1.35
2022-12-04T11:59:22.000Z,1.37
2022-12-04T12:00:22.000Z,1.40
2022-12-04T12:01:22.000Z,1.38
2022-12-04T12:02:22.000Z,1.40
2022-12-04T12:03:22.000Z,1.41
2022-12-04T12:04:22.000Z,1.40
2022-12-04T12:05:22.000Z,1.38
2022-12-04T12:06:22.000Z,1.41
2022-12-04T12:07:22.000Z,1.38
2022-12-04T12:08:22.000Z,1.44
2022-12-04T12:09:22.000Z,1.41
2022-12-04T12:10:22.000Z,1.37
2022-12-04T12:11:22.000Z,1.34
2022-12-04T12:12:22.000Z,1.32
2022-12-04T12:13:22.000Z,1.34
2022-12-04T12:14:22.000Z,1.35
2022-12-04T12:15:22.000Z,1.32
2022-12-04T12:16:22.000Z,1.37
2022-12-04T12:17:22.000Z,1.38
2022-12-04T12:18:22.000Z,1.41
2022-12-04T12:19:22.000Z,1.34
2022-12-04T12:20:22.000Z,1.35
2022-12-04T12:21:22.000Z,1.40
2022-12-04T12:22:22.000Z,1.37
2022-12-04T12:23:22.000Z,1.35
2022-12-04T12:24:22.000Z,1.37
2022-12-04T12:25:22.000Z,1.37
2022-12-04T12:26:22.000Z,1.34
2022-12-04T12:27:22.000Z,1.35
2022-12-04T12:28:22.000Z,1.38
2022-12-04T12:29:22.000Z,1.41
2022-12-04T12:30:22.000Z,1.35
2022-12-04T12:31:22.000Z,1.35
2022-12-04T12:32:22.000Z,1.34
2022-12-04T12:33:22.000Z,1.34
2022-12-04T12:34:22.000Z,1.37
2022-12-04T12:35:22.000Z,1.31
2022-12-04T12:36:22.000Z,1.34
2022-12-04T12:37:21.000Z,1.31
2022-12-04T12:38:21.000Z,1.30
2022-12-04T12:39:21.000Z,1.34
2022-12-04T12:40:21.000Z,1.32
2022-12-04T12:41:21.000Z,1.32
2022-12-04T12:42:21.000Z,1.31
2022-12-04T12:43:21.000Z,1.28
2022-12-04T12:44:21.000Z,1.30
2022-12-04T12:45:21.000Z,1.31
2022-12-04T12:46:21.000Z,1.32
2022-12-04T12:47:21.000Z,1.32
2022-12-04T12:48:21.000Z,1.28
2022-12-04T12:49:21.000Z,1.30
2022-12-04T12:50:21.000Z,1.31
2022-12-04T12:51:21.000Z,1.28
2022-12-04T12:52:21.000Z,1.30
2022-12-04T12:53:21.000Z,1.30
2022-12-04T12:54:21.000Z,1.28
2022-12-04T12:55:21.000Z,1.28
2022-12-04T12:56:21.000Z,1.24
2022-12-04T12:57:21.000Z,1.28
2022-12-04T12:58:21.000Z,1.30
2022-12-04T12:59:21.000Z,1.31
2022-12-04T13:00:21.000Z,1.31
2022-12-04T13:01:21.000Z,1.31
2022-12-04T13:02:21.000Z,1.28
2022-12-04T13:03:21.000Z,1.30
2022-12-04T13:04:21.000Z,1.31
2022-12-04T13:05:21.000Z,1.24
2022-12-04T13:06:21.000Z,1.26
2022-12-04T13:07:21.000Z,1.26
2022-12-04T13:08:21.000Z,1.28